sensor_id;sensor_type;location;lat;lon;timestamp;pressure;altitude;pressure_sealevel;temperature;humidity
39075;BME280;24826;52.070;20.970;2023-05-13T00:00:49;62027.06;;;-147.04;37.10
39075;BME280;24826;52.070;20.970;2023-05-13T00:03:32;62017.09;;;-147.04;37.15
39075;BME280;24826;52.070;20.970;2023-05-13T00:06:17;62019.09;;;-147.04;37.17
39075;BME280;24826;52.070;20.970;2023-05-13T00:09:01;61977.34;;;-147.04;37.07
39075;BME280;24826;52.070;20.970;2023-05-13T00:11:46;62029.03;;;-147.04;37.18
39075;BME280;24826;52.070;20.970;2023-05-13T00:14:30;62037.00;;;-147.04;37.25
39075;BME280;24826;52.070;20.970;2023-05-13T00:17:15;62031.03;;;-147.04;37.16
39075;BME280;24826;52.070;20.970;2023-05-13T00:19:59;62007.16;;;-147.04;37.31
39075;BME280;24826;52.070;20.970;2023-05-13T00:22:44;62005.19;;;-147.04;37.35
39075;BME280;24826;52.070;20.970;2023-05-13T00:25:28;62037.00;;;-147.04;37.34
39075;BME280;24826;52.070;20.970;2023-05-13T00:28:13;62013.13;;;-147.04;37.37
39075;BME280;24826;52.070;20.970;2023-05-13T00:30:58;62029.03;;;-147.04;37.42
39075;BME280;24826;52.070;20.970;2023-05-13T00:33:42;62023.06;;;-147.04;37.39
39075;BME280;24826;52.070;20.970;2023-05-13T00:36:27;62017.09;;;-147.04;37.47
39075;BME280;24826;52.070;20.970;2023-05-13T00:39:11;62007.16;;;-147.04;37.52
39075;BME280;24826;52.070;20.970;2023-05-13T00:41:56;62058.88;;;-147.04;37.38
39075;BME280;24826;52.070;20.970;2023-05-13T00:44:40;61993.25;;;-147.04;37.60
39075;BME280;24826;52.070;20.970;2023-05-13T00:47:24;62019.09;;;-147.04;37.61
39075;BME280;24826;52.070;20.970;2023-05-13T00:50:10;62021.09;;;-147.04;37.59
39075;BME280;24826;52.070;20.970;2023-05-13T00:52:56;62040.97;;;-147.04;37.61
39075;BME280;24826;52.070;20.970;2023-05-13T00:55:41;62005.19;;;-147.04;37.56
39075;BME280;24826;52.070;20.970;2023-05-13T00:58:26;62070.81;;;-147.04;37.88
39075;BME280;24826;52.070;20.970;2023-05-13T01:01:23;62025.06;;;-147.04;37.63
39075;BME280;24826;52.070;20.970;2023-05-13T01:04:36;62025.06;;;-147.04;37.71
39075;BME280;24826;52.070;20.970;2023-05-13T01:07:52;62056.88;;;-147.04;37.75
39075;BME280;24826;52.070;20.970;2023-05-13T01:10:55;62037.00;;;-147.04;37.62
39075;BME280;24826;52.070;20.970;2023-05-13T01:13:43;62025.06;;;-147.04;37.96
39075;BME280;24826;52.070;20.970;2023-05-13T01:16:39;62060.84;;;-147.04;37.78
39075;BME280;24826;52.070;20.970;2023-05-13T01:19:48;62054.91;;;-147.04;37.87
39075;BME280;24826;52.070;20.970;2023-05-13T01:22:35;62009.16;;;-147.04;37.95
39075;BME280;24826;52.070;20.970;2023-05-13T01:25:19;62033.00;;;-147.04;37.98
39075;BME280;24826;52.070;20.970;2023-05-13T01:28:04;62017.09;;;-147.04;37.93
39075;BME280;24826;52.070;20.970;2023-05-13T01:30:49;62021.09;;;-147.04;37.93
39075;BME280;24826;52.070;20.970;2023-05-13T01:33:34;62042.97;;;-147.04;37.90
39075;BME280;24826;52.070;20.970;2023-05-13T01:36:19;62056.88;;;-147.04;37.99
39075;BME280;24826;52.070;20.970;2023-05-13T01:39:04;62035.00;;;-147.04;37.98
39075;BME280;24826;52.070;20.970;2023-05-13T01:41:49;62025.06;;;-147.04;37.91
39075;BME280;24826;52.070;20.970;2023-05-13T01:44:34;62029.03;;;-147.04;38.08
39075;BME280;24826;52.070;20.970;2023-05-13T01:47:19;62009.16;;;-147.04;37.95
39075;BME280;24826;52.070;20.970;2023-05-13T01:50:03;62033.00;;;-147.04;38.04
39075;BME280;24826;52.070;20.970;2023-05-13T01:52:48;62038.97;;;-147.04;38.08
39075;BME280;24826;52.070;20.970;2023-05-13T01:55:32;62033.00;;;-147.04;38.02
39075;BME280;24826;52.070;20.970;2023-05-13T01:58:17;62046.94;;;-147.04;38.03
39075;BME280;24826;52.070;20.970;2023-05-13T02:01:01;62029.03;;;-147.04;38.06
39075;BME280;24826;52.070;20.970;2023-05-13T02:03:46;62021.09;;;-147.04;38.09
39075;BME280;24826;52.070;20.970;2023-05-13T02:06:30;62007.16;;;-147.04;38.12
39075;BME280;24826;52.070;20.970;2023-05-13T02:09:15;62076.78;;;-147.04;37.94
39075;BME280;24826;52.070;20.970;2023-05-13T02:11:59;61993.25;;;-147.04;38.13
39075;BME280;24826;52.070;20.970;2023-05-13T02:14:44;62007.16;;;-147.04;38.09
39075;BME280;24826;52.070;20.970;2023-05-13T02:17:28;62017.09;;;-147.04;38.20
39075;BME280;24826;52.070;20.970;2023-05-13T02:20:13;62035.00;;;-147.04;38.25
39075;BME280;24826;52.070;20.970;2023-05-13T02:22:58;62031.03;;;-147.04;38.23
39075;BME280;24826;52.070;20.970;2023-05-13T02:25:43;62019.09;;;-147.04;38.19
39075;BME280;24826;52.070;20.970;2023-05-13T02:28:28;61989.25;;;-147.04;38.14
39075;BME280;24826;52.070;20.970;2023-05-13T02:31:13;62019.09;;;-147.04;38.16
39075;BME280;24826;52.070;20.970;2023-05-13T02:33:57;62017.09;;;-147.04;38.29
39075;BME280;24826;52.070;20.970;2023-05-13T02:36:41;62025.06;;;-147.04;38.23
39075;BME280;24826;52.070;20.970;2023-05-13T02:39:25;62001.19;;;-147.04;38.19
39075;BME280;24826;52.070;20.970;2023-05-13T02:42:10;62056.88;;;-147.04;38.42
39075;BME280;24826;52.070;20.970;2023-05-13T02:44:54;61985.28;;;-147.04;38.37
39075;BME280;24826;52.070;20.970;2023-05-13T02:47:39;62025.06;;;-147.04;38.48
39075;BME280;24826;52.070;20.970;2023-05-13T02:50:23;61991.25;;;-147.04;38.49
39075;BME280;24826;52.070;20.970;2023-05-13T02:53:08;62029.03;;;-147.04;38.33
39075;BME280;24826;52.070;20.970;2023-05-13T02:55:52;62042.97;;;-147.04;38.44
39075;BME280;24826;52.070;20.970;2023-05-13T02:58:37;62017.09;;;-147.04;38.43
39075;BME280;24826;52.070;20.970;2023-05-13T03:01:21;61997.22;;;-147.04;38.35
39075;BME280;24826;52.070;20.970;2023-05-13T03:04:06;62009.16;;;-147.04;38.50
39075;BME280;24826;52.070;20.970;2023-05-13T03:06:50;62033.00;;;-147.04;38.51
39075;BME280;24826;52.070;20.970;2023-05-13T03:09:35;62040.97;;;-147.04;38.62
39075;BME280;24826;52.070;20.970;2023-05-13T03:12:22;62025.06;;;-147.04;38.62
39075;BME280;24826;52.070;20.970;2023-05-13T03:15:07;62005.19;;;-147.04;38.53
39075;BME280;24826;52.070;20.970;2023-05-13T03:17:51;62031.03;;;-147.04;38.69
39075;BME280;24826;52.070;20.970;2023-05-13T03:20:36;62009.16;;;-147.04;38.67
39075;BME280;24826;52.070;20.970;2023-05-13T03:23:20;62029.03;;;-147.04;38.51
39075;BME280;24826;52.070;20.970;2023-05-13T03:26:04;62037.00;;;-147.04;38.54
39075;BME280;24826;52.070;20.970;2023-05-13T03:28:48;62013.13;;;-147.04;38.57
39075;BME280;24826;52.070;20.970;2023-05-13T03:31:32;62009.16;;;-147.04;38.54
39075;BME280;24826;52.070;20.970;2023-05-13T03:34:16;62058.88;;;-147.04;38.46
39075;BME280;24826;52.070;20.970;2023-05-13T03:37:01;62009.16;;;-147.04;38.57
39075;BME280;24826;52.070;20.970;2023-05-13T03:39:45;62003.19;;;-147.04;38.51
39075;BME280;24826;52.070;20.970;2023-05-13T03:42:30;62021.09;;;-147.04;38.44
39075;BME280;24826;52.070;20.970;2023-05-13T03:45:14;62007.16;;;-147.04;38.43
39075;BME280;24826;52.070;20.970;2023-05-13T03:47:58;61993.25;;;-147.04;38.44
39075;BME280;24826;52.070;20.970;2023-05-13T03:50:42;62037.00;;;-147.04;38.44
39075;BME280;24826;52.070;20.970;2023-05-13T03:53:27;62027.06;;;-147.04;38.62
39075;BME280;24826;52.070;20.970;2023-05-13T03:56:12;62025.06;;;-147.04;38.46
39075;BME280;24826;52.070;20.970;2023-05-13T03:58:57;62029.03;;;-147.04;38.51
39075;BME280;24826;52.070;20.970;2023-05-13T04:01:41;61997.22;;;-147.04;38.52
39075;BME280;24826;52.070;20.970;2023-05-13T04:04:26;61977.34;;;-147.04;38.41
39075;BME280;24826;52.070;20.970;2023-05-13T04:07:10;62009.16;;;-147.04;38.67
39075;BME280;24826;52.070;20.970;2023-05-13T04:09:54;62017.09;;;-147.04;38.64
39075;BME280;24826;52.070;20.970;2023-05-13T04:12:38;62029.03;;;-147.04;38.66
39075;BME280;24826;52.070;20.970;2023-05-13T04:15:23;62015.13;;;-147.04;38.62
39075;BME280;24826;52.070;20.970;2023-05-13T04:18:07;62005.19;;;-147.04;38.66
39075;BME280;24826;52.070;20.970;2023-05-13T04:20:52;62013.13;;;-147.04;38.70
39075;BME280;24826;52.070;20.970;2023-05-13T04:23:36;62025.06;;;-147.04;38.71
39075;BME280;24826;52.070;20.970;2023-05-13T04:26:20;62029.03;;;-147.04;38.66
39075;BME280;24826;52.070;20.970;2023-05-13T04:29:04;61985.28;;;-147.04;38.70
39075;BME280;24826;52.070;20.970;2023-05-13T04:31:48;62007.16;;;-147.04;38.41
39075;BME280;24826;52.070;20.970;2023-05-13T04:34:32;62040.97;;;-147.04;38.71
39075;BME280;24826;52.070;20.970;2023-05-13T04:37:17;62021.09;;;-147.04;38.33
39075;BME280;24826;52.070;20.970;2023-05-13T04:40:02;62003.19;;;-147.04;38.51
39075;BME280;24826;52.070;20.970;2023-05-13T04:42:47;62025.06;;;-147.04;38.48
39075;BME280;24826;52.070;20.970;2023-05-13T04:45:37;62001.19;;;-147.04;38.56
39075;BME280;24826;52.070;20.970;2023-05-13T04:48:22;62009.16;;;-147.04;38.64
39075;BME280;24826;52.070;20.970;2023-05-13T04:51:06;62019.09;;;-147.04;38.63
39075;BME280;24826;52.070;20.970;2023-05-13T04:53:50;62015.13;;;-147.04;38.57
39075;BME280;24826;52.070;20.970;2023-05-13T04:56:35;62005.19;;;-147.04;38.69
39075;BME280;24826;52.070;20.970;2023-05-13T04:59:19;62044.94;;;-147.04;38.62
39075;BME280;24826;52.070;20.970;2023-05-13T05:02:04;61997.22;;;-147.04;38.65
39075;BME280;24826;52.070;20.970;2023-05-13T05:04:48;62021.09;;;-147.04;38.67
39075;BME280;24826;52.070;20.970;2023-05-13T05:07:33;62023.06;;;-147.04;38.59
39075;BME280;24826;52.070;20.970;2023-05-13T05:10:17;61997.22;;;-147.04;38.59
39075;BME280;24826;52.070;20.970;2023-05-13T05:13:02;62005.19;;;-147.04;38.60
39075;BME280;24826;52.070;20.970;2023-05-13T05:15:46;62003.19;;;-147.04;38.57
39075;BME280;24826;52.070;20.970;2023-05-13T05:18:30;62033.00;;;-147.04;38.63
39075;BME280;24826;52.070;20.970;2023-05-13T05:21:14;62031.03;;;-147.04;38.48
39075;BME280;24826;52.070;20.970;2023-05-13T05:24:01;62029.03;;;-147.04;38.57
39075;BME280;24826;52.070;20.970;2023-05-13T05:26:45;62003.19;;;-147.04;38.65
39075;BME280;24826;52.070;20.970;2023-05-13T05:29:29;62005.19;;;-147.04;38.54
39075;BME280;24826;52.070;20.970;2023-05-13T05:32:13;62029.03;;;-147.04;38.66
39075;BME280;24826;52.070;20.970;2023-05-13T05:34:58;62017.09;;;-147.04;38.74
39075;BME280;24826;52.070;20.970;2023-05-13T05:37:45;62005.19;;;-147.04;38.72
39075;BME280;24826;52.070;20.970;2023-05-13T05:40:31;61993.25;;;-147.04;38.54
39075;BME280;24826;52.070;20.970;2023-05-13T05:43:16;62029.03;;;-147.04;38.64
39075;BME280;24826;52.070;20.970;2023-05-13T05:46:00;62194.09;;;-147.04;38.59
39075;BME280;24826;52.070;20.970;2023-05-13T05:48:45;61999.22;;;-147.04;38.73
39075;BME280;24826;52.070;20.970;2023-05-13T05:51:29;62009.16;;;-147.04;38.42
39075;BME280;24826;52.070;20.970;2023-05-13T05:54:14;62029.03;;;-147.04;38.46
39075;BME280;24826;52.070;20.970;2023-05-13T05:56:58;62009.16;;;-147.04;38.37
39075;BME280;24826;52.070;20.970;2023-05-13T05:59:43;62027.06;;;-147.04;38.41
39075;BME280;24826;52.070;20.970;2023-05-13T06:02:27;61997.22;;;-147.04;38.65
39075;BME280;24826;52.070;20.970;2023-05-13T06:05:11;62025.06;;;-147.04;38.46
39075;BME280;24826;52.070;20.970;2023-05-13T06:07:55;62037.00;;;-147.04;38.48
39075;BME280;24826;52.070;20.970;2023-05-13T06:10:40;62033.00;;;-147.04;38.47
39075;BME280;24826;52.070;20.970;2023-05-13T06:13:24;62029.03;;;-147.04;38.44
39075;BME280;24826;52.070;20.970;2023-05-13T06:16:09;61999.22;;;-147.04;38.60
39075;BME280;24826;52.070;20.970;2023-05-13T06:18:54;62015.13;;;-147.04;38.56
39075;BME280;24826;52.070;20.970;2023-05-13T06:21:39;62013.13;;;-147.04;38.53
39075;BME280;24826;52.070;20.970;2023-05-13T06:24:23;62025.06;;;-147.04;38.94
39075;BME280;24826;52.070;20.970;2023-05-13T06:27:09;62042.97;;;-147.04;38.91
39075;BME280;24826;52.070;20.970;2023-05-13T06:29:53;62042.97;;;-147.04;39.06
39075;BME280;24826;52.070;20.970;2023-05-13T06:32:38;62040.97;;;-147.04;39.14
39075;BME280;24826;52.070;20.970;2023-05-13T06:35:22;61999.22;;;-147.04;39.14
39075;BME280;24826;52.070;20.970;2023-05-13T06:38:07;61997.22;;;-147.04;39.20
39075;BME280;24826;52.070;20.970;2023-05-13T06:40:51;62013.13;;;-147.04;38.86
39075;BME280;24826;52.070;20.970;2023-05-13T06:43:35;62025.06;;;-147.04;39.05
39075;BME280;24826;52.070;20.970;2023-05-13T06:46:19;61993.25;;;-147.04;38.78
39075;BME280;24826;52.070;20.970;2023-05-13T06:49:04;62025.06;;;-147.04;39.02
39075;BME280;24826;52.070;20.970;2023-05-13T06:51:48;62052.91;;;-147.04;39.23
39075;BME280;24826;52.070;20.970;2023-05-13T06:54:33;62040.97;;;-147.04;39.12
39075;BME280;24826;52.070;20.970;2023-05-13T06:57:17;62056.88;;;-147.04;38.85
39075;BME280;24826;52.070;20.970;2023-05-13T07:00:02;62013.13;;;-147.04;39.14
39075;BME280;24826;52.070;20.970;2023-05-13T07:02:46;62035.00;;;-147.04;39.37
39075;BME280;24826;52.070;20.970;2023-05-13T07:05:32;62064.84;;;-147.04;39.32
39075;BME280;24826;52.070;20.970;2023-05-13T07:08:16;62044.94;;;-147.04;39.59
39075;BME280;24826;52.070;20.970;2023-05-13T07:11:02;62082.75;;;-147.04;39.57
39075;BME280;24826;52.070;20.970;2023-05-13T07:13:46;62064.84;;;-147.04;39.47
39075;BME280;24826;52.070;20.970;2023-05-13T07:16:31;62060.84;;;-147.04;40.06
39075;BME280;24826;52.070;20.970;2023-05-13T07:19:15;62060.84;;;-147.04;40.91
39075;BME280;24826;52.070;20.970;2023-05-13T07:22:00;62082.75;;;-147.04;40.96
39075;BME280;24826;52.070;20.970;2023-05-13T07:24:44;62048.94;;;-147.04;41.43
39075;BME280;24826;52.070;20.970;2023-05-13T07:27:29;62096.66;;;-147.04;41.71
39075;BME280;24826;52.070;20.970;2023-05-13T07:30:13;62092.69;;;-147.04;41.84
39075;BME280;24826;52.070;20.970;2023-05-13T07:32:58;62090.69;;;-147.04;42.34
39075;BME280;24826;52.070;20.970;2023-05-13T07:35:42;62102.63;;;-147.04;42.41
39075;BME280;24826;52.070;20.970;2023-05-13T07:38:27;62114.56;;;-147.04;42.36
39075;BME280;24826;52.070;20.970;2023-05-13T07:41:11;62104.63;;;-147.04;42.40
39075;BME280;24826;52.070;20.970;2023-05-13T07:43:56;62094.66;;;-147.04;43.01
39075;BME280;24826;52.070;20.970;2023-05-13T07:46:40;62090.69;;;-147.04;42.85
39075;BME280;24826;52.070;20.970;2023-05-13T07:49:24;62116.53;;;-147.04;43.33
39075;BME280;24826;52.070;20.970;2023-05-13T07:52:09;62144.38;;;-147.04;43.27
39075;BME280;24826;52.070;20.970;2023-05-13T07:54:53;62056.88;;;-147.04;43.66
39075;BME280;24826;52.070;20.970;2023-05-13T07:57:38;62082.75;;;-147.04;42.76
39075;BME280;24826;52.070;20.970;2023-05-13T08:00:22;62084.72;;;-147.04;42.47
39075;BME280;24826;52.070;20.970;2023-05-13T08:03:06;62092.69;;;-147.04;42.03
39075;BME280;24826;52.070;20.970;2023-05-13T08:05:51;62122.50;;;-147.04;43.03
39075;BME280;24826;52.070;20.970;2023-05-13T08:08:35;62110.56;;;-147.04;42.94
39075;BME280;24826;52.070;20.970;2023-05-13T08:11:20;62076.78;;;-147.04;42.19
39075;BME280;24826;52.070;20.970;2023-05-13T08:14:05;62104.63;;;-147.04;41.84
39075;BME280;24826;52.070;20.970;2023-05-13T08:16:50;62078.75;;;-147.04;42.32
39075;BME280;24826;52.070;20.970;2023-05-13T08:19:35;62092.69;;;-147.04;43.41
39075;BME280;24826;52.070;20.970;2023-05-13T08:22:20;62068.81;;;-147.04;43.36
39075;BME280;24826;52.070;20.970;2023-05-13T08:25:04;62116.53;;;-147.04;43.13
39075;BME280;24826;52.070;20.970;2023-05-13T08:27:50;62124.50;;;-147.04;43.25
39075;BME280;24826;52.070;20.970;2023-05-13T08:30:34;62122.50;;;-147.04;43.32
39075;BME280;24826;52.070;20.970;2023-05-13T08:33:20;62124.50;;;-147.04;43.33
39075;BME280;24826;52.070;20.970;2023-05-13T08:36:04;62120.53;;;-147.04;43.20
39075;BME280;24826;52.070;20.970;2023-05-13T08:38:48;62136.44;;;-147.04;42.81
39075;BME280;24826;52.070;20.970;2023-05-13T08:41:33;62094.66;;;-147.04;42.98
39075;BME280;24826;52.070;20.970;2023-05-13T08:44:20;62076.78;;;-147.04;42.88
39075;BME280;24826;52.070;20.970;2023-05-13T08:50:11;62076.78;;;-147.04;42.29
39075;BME280;24826;52.070;20.970;2023-05-13T08:52:57;62112.56;;;-147.04;42.62
39075;BME280;24826;52.070;20.970;2023-05-13T08:55:41;62098.66;;;-147.04;42.49
39075;BME280;24826;52.070;20.970;2023-05-13T08:58:26;62116.53;;;-147.04;42.87
39075;BME280;24826;52.070;20.970;2023-05-13T09:01:11;62148.38;;;-147.04;43.34
39075;BME280;24826;52.070;20.970;2023-05-13T09:04:01;62090.69;;;-147.04;43.39
39075;BME280;24826;52.070;20.970;2023-05-13T09:06:47;62108.59;;;-147.04;43.30
39075;BME280;24826;52.070;20.970;2023-05-13T09:09:31;62140.41;;;-147.04;43.46
39075;BME280;24826;52.070;20.970;2023-05-13T09:15:29;62120.53;;;-147.04;43.45
39075;BME280;24826;52.070;20.970;2023-05-13T09:18:14;62168.25;;;-147.04;43.41
39075;BME280;24826;52.070;20.970;2023-05-13T09:21:36;62092.69;;;-147.04;43.36
39075;BME280;24826;52.070;20.970;2023-05-13T09:24:22;62120.53;;;-147.04;43.42
39075;BME280;24826;52.070;20.970;2023-05-13T09:27:06;62118.53;;;-147.04;43.67
39075;BME280;24826;52.070;20.970;2023-05-13T09:30:00;62116.53;;;-147.04;43.28
39075;BME280;24826;52.070;20.970;2023-05-13T09:33:03;62108.59;;;-147.04;43.17
39075;BME280;24826;52.070;20.970;2023-05-13T09:35:52;62144.38;;;-147.04;43.14
39075;BME280;24826;52.070;20.970;2023-05-13T09:38:36;62124.50;;;-147.04;43.96
39075;BME280;24826;52.070;20.970;2023-05-13T09:41:25;62146.38;;;-147.04;43.87
39075;BME280;24826;52.070;20.970;2023-05-13T09:44:12;62152.34;;;-147.04;43.69
39075;BME280;24826;52.070;20.970;2023-05-13T09:46:57;62128.47;;;-147.04;43.46
39075;BME280;24826;52.070;20.970;2023-05-13T09:49:43;62124.50;;;-147.04;43.99
39075;BME280;24826;52.070;20.970;2023-05-13T09:52:32;62124.50;;;-147.04;43.86
39075;BME280;24826;52.070;20.970;2023-05-13T09:55:16;62128.47;;;-147.04;43.83
39075;BME280;24826;52.070;20.970;2023-05-13T09:58:01;62136.44;;;-147.04;43.64
39075;BME280;24826;52.070;20.970;2023-05-13T10:00:46;62132.47;;;-147.04;42.56
39075;BME280;24826;52.070;20.970;2023-05-13T10:03:31;62120.53;;;-147.04;42.42
39075;BME280;24826;52.070;20.970;2023-05-13T10:06:16;62116.53;;;-147.04;42.56
39075;BME280;24826;52.070;20.970;2023-05-13T10:09:02;62128.47;;;-147.04;42.72
39075;BME280;24826;52.070;20.970;2023-05-13T10:11:48;62158.31;;;-147.04;42.90
39075;BME280;24826;52.070;20.970;2023-05-13T10:14:34;62138.41;;;-147.04;42.43
39075;BME280;24826;52.070;20.970;2023-05-13T10:17:24;62124.50;;;-147.04;42.33
39075;BME280;24826;52.070;20.970;2023-05-13T10:20:10;62144.38;;;-147.04;42.35
39075;BME280;24826;52.070;20.970;2023-05-13T10:22:55;62114.56;;;-147.04;41.96
39075;BME280;24826;52.070;20.970;2023-05-13T10:25:40;62140.41;;;-147.04;41.11
39075;BME280;24826;52.070;20.970;2023-05-13T10:28:26;62150.34;;;-147.04;41.61
39075;BME280;24826;52.070;20.970;2023-05-13T10:31:11;62112.56;;;-147.04;41.10
39075;BME280;24826;52.070;20.970;2023-05-13T10:33:56;62088.69;;;-147.04;41.15
39075;BME280;24826;52.070;20.970;2023-05-13T10:36:57;62114.56;;;-147.04;40.94
39075;BME280;24826;52.070;20.970;2023-05-13T10:40:04;62144.38;;;-147.04;41.18
39075;BME280;24826;52.070;20.970;2023-05-13T10:43:38;62176.22;;;-147.04;41.14
39075;BME280;24826;52.070;20.970;2023-05-13T10:48:47;62154.34;;;-147.04;40.86
39075;BME280;24826;52.070;20.970;2023-05-13T10:51:32;62148.38;;;-147.04;40.59
39075;BME280;24826;52.070;20.970;2023-05-13T10:54:18;62168.25;;;-147.04;40.51
39075;BME280;24826;52.070;20.970;2023-05-13T10:57:03;62136.44;;;-147.04;40.91
39075;BME280;24826;52.070;20.970;2023-05-13T11:00:13;62128.47;;;-147.04;40.54
39075;BME280;24826;52.070;20.970;2023-05-13T11:03:10;62140.41;;;-147.04;40.67
39075;BME280;24826;52.070;20.970;2023-05-13T11:06:01;62132.47;;;-147.04;40.75
39075;BME280;24826;52.070;20.970;2023-05-13T11:08:56;62132.47;;;-147.04;40.35
39075;BME280;24826;52.070;20.970;2023-05-13T11:11:46;62118.53;;;-147.04;40.40
39075;BME280;24826;52.070;20.970;2023-05-13T11:14:30;62136.44;;;-147.04;40.20
39075;BME280;24826;52.070;20.970;2023-05-13T11:17:17;62132.47;;;-147.04;40.18
39075;BME280;24826;52.070;20.970;2023-05-13T11:20:03;62114.56;;;-147.04;40.24
39075;BME280;24826;52.070;20.970;2023-05-13T11:22:49;62144.38;;;-147.04;40.38
39075;BME280;24826;52.070;20.970;2023-05-13T11:25:34;62140.41;;;-147.04;40.57
39075;BME280;24826;52.070;20.970;2023-05-13T11:31:46;62176.22;;;-147.04;39.98
39075;BME280;24826;52.070;20.970;2023-05-13T11:34:32;62140.41;;;-147.04;40.02
39075;BME280;24826;52.070;20.970;2023-05-13T11:37:17;62148.38;;;-147.04;40.03
39075;BME280;24826;52.070;20.970;2023-05-13T11:40:02;62154.34;;;-147.04;40.00
39075;BME280;24826;52.070;20.970;2023-05-13T11:42:47;62114.56;;;-147.04;40.28
39075;BME280;24826;52.070;20.970;2023-05-13T11:45:32;62140.41;;;-147.04;39.76
39075;BME280;24826;52.070;20.970;2023-05-13T11:48:21;62148.38;;;-147.04;39.65
39075;BME280;24826;52.070;20.970;2023-05-13T11:51:06;62136.44;;;-147.04;39.40
39075;BME280;24826;52.070;20.970;2023-05-13T11:53:50;62162.28;;;-147.04;39.29
39075;BME280;24826;52.070;20.970;2023-05-13T11:56:36;62156.31;;;-147.04;39.79
39075;BME280;24826;52.070;20.970;2023-05-13T11:59:20;62136.44;;;-147.04;39.27
39075;BME280;24826;52.070;20.970;2023-05-13T12:02:06;62118.53;;;-147.04;39.58
39075;BME280;24826;52.070;20.970;2023-05-13T12:04:51;62140.41;;;-147.04;39.88
39075;BME280;24826;52.070;20.970;2023-05-13T12:07:37;62156.31;;;-147.04;39.90
39075;BME280;24826;52.070;20.970;2023-05-13T12:10:22;62152.34;;;-147.04;39.87
39075;BME280;24826;52.070;20.970;2023-05-13T12:13:08;62148.38;;;-147.04;39.90
39075;BME280;24826;52.070;20.970;2023-05-13T12:15:53;62120.53;;;-147.04;39.19
39075;BME280;24826;52.070;20.970;2023-05-13T12:18:39;62144.38;;;-147.04;39.79
39075;BME280;24826;52.070;20.970;2023-05-13T12:21:23;62174.22;;;-147.04;39.84
39075;BME280;24826;52.070;20.970;2023-05-13T12:24:20;62122.50;;;-147.04;39.25
39075;BME280;24826;52.070;20.970;2023-05-13T12:27:05;62112.56;;;-147.04;38.86
39075;BME280;24826;52.070;20.970;2023-05-13T12:29:53;62168.25;;;-147.04;38.73
39075;BME280;24826;52.070;20.970;2023-05-13T12:32:43;62172.22;;;-147.04;39.39
39075;BME280;24826;52.070;20.970;2023-05-13T12:35:28;62138.41;;;-147.04;39.62
39075;BME280;24826;52.070;20.970;2023-05-13T12:38:21;62301.50;;;-147.04;38.65
39075;BME280;24826;52.070;20.970;2023-05-13T12:41:10;62156.31;;;-147.04;38.71
39075;BME280;24826;52.070;20.970;2023-05-13T12:43:57;62134.44;;;-147.04;39.28
39075;BME280;24826;52.070;20.970;2023-05-13T12:46:51;62124.50;;;-147.04;39.27
39075;BME280;24826;52.070;20.970;2023-05-13T12:49:50;62136.44;;;-147.04;39.13
39075;BME280;24826;52.070;20.970;2023-05-13T12:52:34;62134.44;;;-147.04;39.32
39075;BME280;24826;52.070;20.970;2023-05-13T12:55:19;62277.63;;;-147.04;39.18
39075;BME280;24826;52.070;20.970;2023-05-13T12:58:06;62114.56;;;-147.04;39.42
39075;BME280;24826;52.070;20.970;2023-05-13T13:00:54;62124.50;;;-147.04;38.82
39075;BME280;24826;52.070;20.970;2023-05-13T13:03:38;62142.41;;;-147.04;39.10
39075;BME280;24826;52.070;20.970;2023-05-13T13:06:22;62174.22;;;-147.04;39.17
39075;BME280;24826;52.070;20.970;2023-05-13T13:09:07;62136.44;;;-147.04;39.09
39075;BME280;24826;52.070;20.970;2023-05-13T13:11:51;62132.47;;;-147.04;38.77
39075;BME280;24826;52.070;20.970;2023-05-13T13:14:35;62136.44;;;-147.04;38.85
39075;BME280;24826;52.070;20.970;2023-05-13T13:17:20;62144.38;;;-147.04;38.92
39075;BME280;24826;52.070;20.970;2023-05-13T13:20:05;62124.50;;;-147.04;38.68
39075;BME280;24826;52.070;20.970;2023-05-13T13:22:52;62120.53;;;-147.04;38.44
39075;BME280;24826;52.070;20.970;2023-05-13T13:25:36;62132.47;;;-147.04;38.41
39075;BME280;24826;52.070;20.970;2023-05-13T13:28:21;62162.28;;;-147.04;38.57
39075;BME280;24826;52.070;20.970;2023-05-13T13:31:05;62166.25;;;-147.04;38.65
39075;BME280;24826;52.070;20.970;2023-05-13T13:33:51;62162.28;;;-147.04;39.13
39075;BME280;24826;52.070;20.970;2023-05-13T13:36:37;62120.53;;;-147.04;39.04
39075;BME280;24826;52.070;20.970;2023-05-13T13:39:21;62148.38;;;-147.04;39.57
39075;BME280;24826;52.070;20.970;2023-05-13T13:42:06;62148.38;;;-147.04;39.95
39075;BME280;24826;52.070;20.970;2023-05-13T13:44:50;62116.53;;;-147.04;40.20
39075;BME280;24826;52.070;20.970;2023-05-13T13:47:35;62144.38;;;-147.04;40.44
39075;BME280;24826;52.070;20.970;2023-05-13T13:50:19;62132.47;;;-147.04;40.57
39075;BME280;24826;52.070;20.970;2023-05-13T13:53:04;62112.56;;;-147.04;40.56
39075;BME280;24826;52.070;20.970;2023-05-13T13:55:48;62168.25;;;-147.04;40.31
39075;BME280;24826;52.070;20.970;2023-05-13T13:58:33;62144.38;;;-147.04;40.27
39075;BME280;24826;52.070;20.970;2023-05-13T14:01:17;62172.22;;;-147.04;40.36
39075;BME280;24826;52.070;20.970;2023-05-13T14:04:10;62188.13;;;-147.04;40.33
39075;BME280;24826;52.070;20.970;2023-05-13T14:06:55;62158.31;;;-147.04;40.56
39075;BME280;24826;52.070;20.970;2023-05-13T14:09:40;62196.09;;;-147.04;40.47
39075;BME280;24826;52.070;20.970;2023-05-13T14:12:24;62180.19;;;-147.04;40.55
39075;BME280;24826;52.070;20.970;2023-05-13T14:15:09;62144.38;;;-147.04;40.42
39075;BME280;24826;52.070;20.970;2023-05-13T14:17:54;62156.31;;;-147.04;40.62